Nikishka, Alaska
Current Conditions -  °F | °C
As of 1:53 AM on Friday 24 Oct 2014 (Local Time) from PAEN Reporting Station
Clear Clear  
Wind Chill: 28°   Ceiling: Unl
Heat Index: 28°   Visibility: 10mi
Dew Point: 24°   Wind: 0mph
Humidity: 85%   Direction: NA
Pressure: 29.76"   Gusts: NA
Location:  60.7377°N, 151.324°W
Report Text: PAEN 240953Z AUTO 00000KT 10SM CLR M02/M04 A2976 RMK AO2 SLP080 T10221044 TSNO
Loading
Personal Weather Stations






























Interactive Weather Map
Tropical Storm Tracking
New forecast layout! Learn more

10-Day Weather Forecast

Advertisements
Track Severe Weather on mobile